Irvine, KY (40472)

4:38 AM EDT on July 06, 2015 (GMT -0400)
Irvine, Ky. | | Change Station
CLOSE
Current Station
Personal Weather Station
Location: Irvine, KY
Elevation: 719 ft
Nearby Weather Stations

Elev 719 ft 37.69 °N, 83.96 °W | Updated 1 second ago

Overcast
Overcast
67.6 °F
Feels Like 67.6 °F
N
0.0
Wind Variable Wind from North
Gusts 0.0 mph

Today
High -- | Low -- °F
--% Chance of Precip.
Yesterday
High -- | Low -- °F
Precip. -- in
6:20 AM 9:00 PM
Waning Gibbous, 77% visible
Pressure 30.06 in
Visibility 4.0 miles
Clouds Scattered Clouds 200 ft
Dew Point 67 °F
Humidity 99%
Rainfall 0.00 in
Snow Depth Not available.
UV 0 out of 12
Pollen .50 out of 12
Air Quality Not available.
Flu Activity Not available.
METAR KI39 060815Z AUTO 19005KT 4SM SCT002 18/17 A3006 RMK AO2

More Conditions Fewer Conditions

Pressure 30.06 in
Visibility 4.0 miles
Clouds Scattered Clouds 200 ft
Dew Point 67 °F
Humidity 99%
Rainfall 0.00 in
Snow Depth Not available.
UV 0 out of 12
Pollen .50 out of 12
Air Quality Not available.
Flu Activity Not available.
METAR KI39 060815Z AUTO 19005KT 4SM SCT002 18/17 A3006 RMK AO2

More Conditions Fewer Conditions

10-Day Weather Forecast

×

Almanac

Astronomy

Jul. 06, 2015 Rise Set
Actual Time
Civil Twilight
Nautical Twilight
Astronomical Twilight
Moon
Length of Visible Light
Length of Day
Tomorrow will be .
, % of the Moon is Illuminated

Today's Extremes

State Highs State Lows

Community

WunderPhotos

Upload Photos

1,835,510 photos uploaded!

WunderBlogs® & News

Nearby

Air Quality

  Air Quality AQ Index Pollutant
Not available.

Snow Depth

Station Depth Elevation

Earthquake Activity

City Distance Mag. Time & Date
Minimum magnitude displayed is 2.5.

Coastal Water Temperatures

Place Temperature

Stations

Nearby Weather Stations

Station Location Temp. Windchill Dew Point Humidity Wind Precip. Elev Updated Type